• Join FlightAware (Why Join?)
  • Login
  • US Flag 
08:05AM EDT


 

Airport Tracker/Info


-or-


 

Live Flight TrackerFlight Track Log ✈ N587DG ✈ 21-Jul-2013 ✈ KSBM - KCPS

Flight Track Log - Related Links

Times and Time Zones

All times are in EDT time to prevent confusion due to time zone crossing. See the N587DG flight status page for this flight to view local times or setup timezone preferences in your user account.

Time Position Orientation Groundspeed Altitude Reporting Facility
EDT Latitude Longitude Course Direction KTS MPH feet Rate Location/Type
08:33AM 43.7000 -87.9000 206° Southwest 147 169 2,500  Level KMKE
08:34AM 43.6500 -87.9333 206° Southwest 160 184 3,100 600 Climbing KMKE
08:35AM 43.6403 -87.9503 232° Southwest 147 169 3,600 780 Climbing Chicago Center
08:36AM 43.6103 -87.9700 205° Southwest 129 148 4,500 900 Climbing Chicago Center
08:37AM 43.5736 -87.9964 208° Southwest 126 145 5,500 720 Climbing Chicago Center
08:38AM 43.5400 -88.0211 208° Southwest 134 154 6,000 240 Climbing Chicago Center
08:39AM 43.5011 -88.0481 207° Southwest 153 176 6,000  Level Chicago Center
08:40AM 43.4608 -88.0758 207° Southwest 160 184 6,000  Level Chicago Center
08:41AM 43.4239 -88.1033 208° Southwest 153 176 6,000  Level Chicago Center
08:42AM 43.3878 -88.1275 206° Southwest 146 168 6,000  Level Chicago Center
08:43AM 43.3508 -88.1533 207° Southwest 147 169 6,000  Level Chicago Center
08:44AM 43.3133 -88.1783 206° Southwest 148 170 6,000  Level Chicago Center
08:45AM 43.2767 -88.2058 209° Southwest 149 171 6,000  Level Chicago Center
08:46AM 43.2397 -88.2308 206° Southwest 148 170 6,000  Level Chicago Center
08:47AM 43.1964 -88.2614 207° Southwest 149 171 6,000  Level Chicago Center
08:48AM 43.1603 -88.2878 208° Southwest 148 170 6,000  Level Chicago Center
08:49AM 43.1228 -88.3131 206° Southwest 148 170 6,000  Level Chicago Center
08:50AM 43.0856 -88.3397 208° Southwest 150 173 6,000  Level Chicago Center
08:51AM 43.0481 -88.3661 207° Southwest 151 174 6,000  Level Chicago Center
08:52AM 43.0111 -88.3911 206° Southwest 148 170 6,000  Level Chicago Center
08:53AM 42.9739 -88.4169 207° Southwest 149 171 6,000  Level Chicago Center
08:54AM 42.9358 -88.4431 207° Southwest 152 175 6,000  Level Chicago Center
08:55AM 42.8989 -88.4692 207° Southwest 150 173 6,000  Level Chicago Center
08:56AM 42.8542 -88.4994 206° Southwest 152 175 6,000  Level Chicago Center
08:57AM 42.8175 -88.5253 207° Southwest 150 173 6,000  Level Chicago Center
08:58AM 42.7783 -88.5519 207° Southwest 154 177 6,000  Level Chicago Center
08:59AM 42.7406 -88.5778 207° Southwest 153 176 6,000  Level Chicago Center
09:00AM 42.7025 -88.6039 207° Southwest 153 176 6,000  Level Chicago Center
09:01AM 42.6644 -88.6303 207° Southwest 153 176 6,000  Level Chicago Center
09:02AM 42.6272 -88.6564 207° Southwest 152 175 6,000  Level Chicago Center
09:03AM 42.5883 -88.6828 207° Southwest 155 178 6,000  Level Chicago Center
09:04AM 42.5436 -88.7131 207° Southwest 154 177 6,000  Level Chicago Center
09:05AM 42.5047 -88.7394 207° Southwest 157 181 6,000  Level Chicago Center
09:06AM 42.4661 -88.7667 207° Southwest 157 181 6,000  Level Chicago Center
09:08AM 42.4253 -88.7856 199° South 155 178 6,000  Level Chicago Center
09:09AM 42.3825 -88.7994 193° South 157 181 6,000  Level Chicago Center
09:10AM 42.3414 -88.8161 197° South 154 177 6,000  Level Chicago Center
09:11AM 42.2947 -88.8317 194° South 155 178 6,000  Level Chicago Center
09:12AM 42.2578 -88.8472 197° South 155 178 6,000  Level Chicago Center
09:13AM 42.2092 -88.8656 196° South 155 178 6,000  Level Chicago Center
09:14AM 42.1664 -88.8800 194° South 158 182 6,000  Level Chicago Center
09:15AM 42.1242 -88.8981 198° South 158 182 6,000  Level Chicago Center
09:16AM 42.0825 -88.9128 195° South 155 178 6,000  Level Chicago Center
09:17AM 42.0364 -88.9303 196° South 158 182 6,000  Level Chicago Center
09:18AM 41.9953 -88.9447 195° South 155 178 6,000  Level Chicago Center
09:19AM 41.9531 -88.9606 196° South 158 182 6,000  Level Chicago Center
09:20AM 41.9119 -88.9758 195° South 156 180 6,000  Level Chicago Center
09:21AM 41.8714 -88.9917 196° South 153 176 6,000  Level Chicago Center
09:22AM 41.8300 -89.0058 194° South 154 177 6,000  Level Chicago Center
09:23AM 41.7817 -89.0247 196° South 152 175 6,000  Level Chicago Center
09:24AM 41.7411 -89.0383 194° South 152 175 6,000  Level Chicago Center
09:25AM 41.7014 -89.0536 196° South 150 173 6,000  Level Chicago Center
09:26AM 41.6611 -89.0689 196° South 151 174 6,100  Climbing Chicago Center
09:27AM 41.6208 -89.0831 195° South 151 174 6,100  Level Chicago Center
09:28AM 41.5808 -89.0981 196° South 150 173 6,100 -60 Level Chicago Center
09:29AM 41.5322 -89.1153 195° South 151 174 6,000 -60 Descending Chicago Center
09:30AM 41.4908 -89.1300 195° South 153 176 6,000  Level Chicago Center
09:31AM 41.4508 -89.1453 196° South 152 175 6,000  Level Chicago Center
09:32AM 41.4081 -89.1600 194° South 156 180 6,000  Level Chicago Center
09:33AM 41.3675 -89.1742 195° South 154 177 6,000  Level Chicago Center
09:34AM 41.3164 -89.1931 196° South 158 182 6,000  Level Chicago Center
09:35AM 41.2808 -89.2072 197° South 155 178 6,000  Level Chicago Center
09:36AM 41.2392 -89.2225 195° South 155 178 6,000  Level Chicago Center
09:37AM 41.1900 -89.2411 196° South 154 177 6,000  Level Chicago Center
09:38AM 41.1483 -89.2561 195° South 155 178 6,000  Level Chicago Center
09:39AM 41.1067 -89.2711 195° South 154 177 6,000  Level Chicago Center
09:40AM 41.0650 -89.2864 195° South 154 177 6,000  Level Chicago Center
09:41AM 41.0228 -89.3008 194° South 156 180 6,000  Level Chicago Center
09:42AM 40.9822 -89.3161 196° South 153 176 6,000  Level Chicago Center
09:44AM 40.9392 -89.3222 186° South 153 176 6,000  Level Chicago Center
09:45AM 40.8956 -89.3172 175° South 157 181 6,000  Level Chicago Center
09:46AM 40.8444 -89.3183 181° South 155 178 6,000  Level Chicago Center
09:47AM 40.8031 -89.3378 200° South 155 178 6,000  Level Chicago Center
09:48AM 40.7611 -89.3531 195° South 156 180 6,000  Level Chicago Center
09:49AM 40.7192 -89.3681 195° South 156 180 6,000  Level Chicago Center
09:50AM 40.6775 -89.3828 195° South 154 177 6,000  Level Chicago Center
09:51AM 40.6361 -89.3983 196° South 154 177 6,000  Level Chicago Center
09:52AM 40.5947 -89.4150 197° South 155 178 6,000  Level Chicago Center
09:53AM 40.5450 -89.4319 195° South 153 176 6,000  Level Chicago Center
09:54AM 40.5039 -89.4478 196° South 153 176 6,000  Level Chicago Center
09:55AM 40.4622 -89.4631 196° South 154 177 6,000  Level Chicago Center
09:56AM 40.4211 -89.4803 198° South 154 177 6,000  Level Chicago Center
09:57AM 40.3786 -89.4953 195° South 157 181 6,000  Level Chicago Center
09:58AM 40.3361 -89.5111 196° South 158 182 6,000  Level Chicago Center
09:59AM 40.2944 -89.5275 197° South 157 181 6,000  Level Chicago Center
10:00AM 40.2431 -89.5467 196° South 159 183 6,000  Level Chicago Center
10:01AM 40.2008 -89.5633 197° South 158 182 6,000  Level Chicago Center
10:02AM 40.1594 -89.5781 195° South 156 180 6,000  Level Chicago Center
10:03AM 40.1172 -89.5925 195° South 157 181 6,000  Level Chicago Center
10:04AM 40.0747 -89.6081 196° South 158 182 6,000  Level Chicago Center
10:05AM 40.0336 -89.6250 198° South 157 181 6,000  Level Chicago Center
10:06AM 39.9911 -89.6386 194° South 157 181 6,000  Level Chicago Center
10:07AM 39.9419 -89.6567 196° South 154 177 6,000  Level Chicago Center
10:08AM 39.9014 -89.6725 197° South 154 177 6,000  Level Chicago Center
10:09AM 39.8603 -89.6875 196° South 153 176 6,000  Level Chicago Center
10:10AM 39.8206 -89.7039 198° South 151 174 6,000  Level Chicago Center
10:11AM 39.7800 -89.7189 196° South 151 174 6,000  Level Chicago Center
10:12AM 39.7397 -89.7325 195° South 150 173 6,000  Level Chicago Center
10:13AM 39.7006 -89.7464 195° South 148 170 6,000 -300 Level Chicago Center
10:14AM 39.6503 -89.7639 195° South 151 174 5,400 -540 Descending Chicago Center
10:16AM 39.6031 -89.7819 196° South 157 181 4,900 -480 Descending Kansas City Center
10:17AM 39.5606 -89.7983 197° South 158 182 4,400 -540 Descending Kansas City Center